CheckWX is a tool to help pilots better visualize weather data.  It is not intended as a substitute for an official pre-flight weather briefing.

05:10:33 UTC

KIBM METAR
Kimball Municipal / Robert E Arraj Field Airport
Kimball, Nebraska, USA
Current

36 mins ago

KIBM 240435Z AUTO 32010G16KT 10SM CLR M04/M13 A3002 RMK AO2 T10421130
Observed
Feb-24 @ 04:35 UTC
Wind
  • 320° at 10 KTS
  • Gusting to 16 KTS
Visibility
10 SM
Flight Rules
VFR
Cloud Levels
  • Clear skies
Temperature
-4°C / 25°F
Dewpoint
-13°C / 9°F
Humidity
50%
Altimeter
30.02" Hg
Pressure
1016.62 hPa
Previous

56 mins ago

KIBM 240415Z AUTO 32010KT 10SM CLR M04/M13 A3002 RMK AO2 T10441133
Observed
Feb-24 @ 04:15 UTC
Wind
  • 320° at 10 KTS
Visibility
10 SM
Flight Rules
VFR
Cloud Levels
  • Clear skies
Temperature
-4°C / 25°F
Dewpoint
-13°C / 9°F
Humidity
50%
Altimeter
30.02" Hg
Pressure
1016.62 hPa
Previous

1 hour ago

KIBM 240355Z AUTO 31012KT 10SM CLR M04/M13 A3001 RMK AO2 T10451130
Observed
Feb-24 @ 03:55 UTC
Wind
  • 310° at 12 KTS
Visibility
10 SM
Flight Rules
VFR
Cloud Levels
  • Clear skies
Temperature
-5°C / 23°F
Dewpoint
-13°C / 9°F
Humidity
54%
Altimeter
30.01" Hg
Pressure
1016.22 hPa